sensor_id;sensor_type;location;lat;lon;timestamp;P1;durP1;ratioP1;P2;durP2;ratioP2
67747;SDS011;54543;50.712;6.070;2023-11-19T00:00:35;0.63;;;0.60;;
67747;SDS011;54543;50.712;6.070;2023-11-19T00:03:01;1.60;;;0.60;;
67747;SDS011;54543;50.712;6.070;2023-11-19T00:05:27;0.57;;;0.57;;
67747;SDS011;54543;50.712;6.070;2023-11-19T00:07:53;0.50;;;0.50;;
67747;SDS011;54543;50.712;6.070;2023-11-19T00:10:19;0.65;;;0.60;;
67747;SDS011;54543;50.712;6.070;2023-11-19T00:12:47;0.70;;;0.50;;
67747;SDS011;54543;50.712;6.070;2023-11-19T00:15:14;1.27;;;0.82;;
67747;SDS011;54543;50.712;6.070;2023-11-19T00:17:40;0.88;;;0.60;;
67747;SDS011;54543;50.712;6.070;2023-11-19T00:20:10;0.70;;;0.70;;
67747;SDS011;54543;50.712;6.070;2023-11-19T00:22:36;0.82;;;0.80;;
67747;SDS011;54543;50.712;6.070;2023-11-19T00:25:02;0.80;;;0.75;;
67747;SDS011;54543;50.712;6.070;2023-11-19T00:27:28;1.20;;;1.08;;
67747;SDS011;54543;50.712;6.070;2023-11-19T00:29:54;2.10;;;1.00;;
67747;SDS011;54543;50.712;6.070;2023-11-19T00:32:19;2.15;;;0.98;;
67747;SDS011;54543;50.712;6.070;2023-11-19T00:34:45;1.08;;;0.82;;
67747;SDS011;54543;50.712;6.070;2023-11-19T00:37:13;0.80;;;0.73;;
67747;SDS011;54543;50.712;6.070;2023-11-19T00:39:40;1.75;;;1.02;;
67747;SDS011;54543;50.712;6.070;2023-11-19T00:42:11;2.47;;;1.50;;
67747;SDS011;54543;50.712;6.070;2023-11-19T00:44:37;1.20;;;1.10;;
67747;SDS011;54543;50.712;6.070;2023-11-19T00:47:02;2.17;;;1.38;;
67747;SDS011;54543;50.712;6.070;2023-11-19T00:49:28;1.98;;;1.30;;
67747;SDS011;54543;50.712;6.070;2023-11-19T00:51:53;1.40;;;1.05;;
67747;SDS011;54543;50.712;6.070;2023-11-19T00:54:20;2.97;;;1.10;;
67747;SDS011;54543;50.712;6.070;2023-11-19T00:56:46;1.67;;;1.27;;
67747;SDS011;54543;50.712;6.070;2023-11-19T00:59:11;1.35;;;1.08;;
67747;SDS011;54543;50.712;6.070;2023-11-19T01:01:37;1.80;;;1.10;;
67747;SDS011;54543;50.712;6.070;2023-11-19T01:04:03;1.60;;;1.02;;
67747;SDS011;54543;50.712;6.070;2023-11-19T01:06:31;1.40;;;1.00;;
67747;SDS011;54543;50.712;6.070;2023-11-19T01:08:57;3.22;;;0.95;;
67747;SDS011;54543;50.712;6.070;2023-11-19T01:11:23;1.65;;;1.00;;
67747;SDS011;54543;50.712;6.070;2023-11-19T01:13:50;1.48;;;0.82;;
67747;SDS011;54543;50.712;6.070;2023-11-19T01:16:16;1.17;;;0.98;;
67747;SDS011;54543;50.712;6.070;2023-11-19T01:18:43;1.83;;;1.05;;
67747;SDS011;54543;50.712;6.070;2023-11-19T01:21:09;1.30;;;1.00;;
67747;SDS011;54543;50.712;6.070;2023-11-19T01:23:34;3.40;;;0.98;;
67747;SDS011;54543;50.712;6.070;2023-11-19T01:26:00;1.40;;;1.00;;
67747;SDS011;54543;50.712;6.070;2023-11-19T01:28:26;1.65;;;1.00;;
67747;SDS011;54543;50.712;6.070;2023-11-19T01:30:51;2.45;;;1.15;;
67747;SDS011;54543;50.712;6.070;2023-11-19T01:33:17;1.88;;;1.05;;
67747;SDS011;54543;50.712;6.070;2023-11-19T01:35:43;1.95;;;1.13;;
67747;SDS011;54543;50.712;6.070;2023-11-19T01:38:09;1.33;;;1.20;;
67747;SDS011;54543;50.712;6.070;2023-11-19T01:40:34;1.90;;;1.30;;
67747;SDS011;54543;50.712;6.070;2023-11-19T01:43:01;1.10;;;1.00;;
67747;SDS011;54543;50.712;6.070;2023-11-19T01:45:28;3.47;;;1.20;;
67747;SDS011;54543;50.712;6.070;2023-11-19T01:47:58;2.65;;;1.40;;
67747;SDS011;54543;50.712;6.070;2023-11-19T01:50:26;2.83;;;1.15;;
67747;SDS011;54543;50.712;6.070;2023-11-19T01:52:53;1.90;;;1.08;;
67747;SDS011;54543;50.712;6.070;2023-11-19T01:55:22;2.03;;;1.00;;
67747;SDS011;54543;50.712;6.070;2023-11-19T01:57:49;4.22;;;1.67;;
67747;SDS011;54543;50.712;6.070;2023-11-19T02:00:16;2.35;;;1.13;;
67747;SDS011;54543;50.712;6.070;2023-11-19T02:02:44;4.72;;;1.48;;
67747;SDS011;54543;50.712;6.070;2023-11-19T02:05:11;4.45;;;1.50;;
67747;SDS011;54543;50.712;6.070;2023-11-19T02:07:38;3.63;;;1.63;;
67747;SDS011;54543;50.712;6.070;2023-11-19T02:10:04;4.68;;;1.38;;
67747;SDS011;54543;50.712;6.070;2023-11-19T02:12:31;2.78;;;1.38;;
67747;SDS011;54543;50.712;6.070;2023-11-19T02:15:00;2.83;;;1.40;;
67747;SDS011;54543;50.712;6.070;2023-11-19T02:17:30;2.50;;;1.30;;
67747;SDS011;54543;50.712;6.070;2023-11-19T02:19:57;3.03;;;1.40;;
67747;SDS011;54543;50.712;6.070;2023-11-19T02:22:23;1.75;;;1.17;;
67747;SDS011;54543;50.712;6.070;2023-11-19T02:24:51;2.78;;;1.20;;
67747;SDS011;54543;50.712;6.070;2023-11-19T02:27:27;2.92;;;1.20;;
67747;SDS011;54543;50.712;6.070;2023-11-19T02:29:56;2.72;;;1.13;;
67747;SDS011;54543;50.712;6.070;2023-11-19T02:32:23;2.83;;;1.40;;
67747;SDS011;54543;50.712;6.070;2023-11-19T02:34:48;2.25;;;1.10;;
67747;SDS011;54543;50.712;6.070;2023-11-19T02:37:14;4.65;;;1.50;;
67747;SDS011;54543;50.712;6.070;2023-11-19T02:39:40;3.13;;;1.30;;
67747;SDS011;54543;50.712;6.070;2023-11-19T02:42:07;5.88;;;1.40;;
67747;SDS011;54543;50.712;6.070;2023-11-19T02:44:33;2.40;;;1.20;;
67747;SDS011;54543;50.712;6.070;2023-11-19T02:46:59;3.85;;;1.17;;
67747;SDS011;54543;50.712;6.070;2023-11-19T02:49:25;3.58;;;1.27;;
67747;SDS011;54543;50.712;6.070;2023-11-19T02:51:51;4.97;;;1.20;;
67747;SDS011;54543;50.712;6.070;2023-11-19T02:54:17;2.38;;;1.30;;
67747;SDS011;54543;50.712;6.070;2023-11-19T02:56:43;3.50;;;1.25;;
67747;SDS011;54543;50.712;6.070;2023-11-19T02:59:08;2.28;;;0.88;;
67747;SDS011;54543;50.712;6.070;2023-11-19T03:01:39;6.40;;;1.30;;
67747;SDS011;54543;50.712;6.070;2023-11-19T03:04:08;1.73;;;1.20;;
67747;SDS011;54543;50.712;6.070;2023-11-19T03:06:37;1.77;;;1.08;;
67747;SDS011;54543;50.712;6.070;2023-11-19T03:09:02;2.90;;;1.40;;
67747;SDS011;54543;50.712;6.070;2023-11-19T03:11:32;4.45;;;1.42;;
67747;SDS011;54543;50.712;6.070;2023-11-19T03:13:58;7.78;;;1.70;;
67747;SDS011;54543;50.712;6.070;2023-11-19T03:16:24;3.40;;;1.20;;
67747;SDS011;54543;50.712;6.070;2023-11-19T03:18:49;7.00;;;1.52;;
67747;SDS011;54543;50.712;6.070;2023-11-19T03:21:16;4.32;;;1.38;;
67747;SDS011;54543;50.712;6.070;2023-11-19T03:23:41;3.83;;;1.48;;
67747;SDS011;54543;50.712;6.070;2023-11-19T03:26:11;1.67;;;1.13;;
67747;SDS011;54543;50.712;6.070;2023-11-19T03:28:36;3.50;;;1.58;;
67747;SDS011;54543;50.712;6.070;2023-11-19T03:31:04;3.22;;;1.35;;
67747;SDS011;54543;50.712;6.070;2023-11-19T03:33:33;5.25;;;1.60;;
67747;SDS011;54543;50.712;6.070;2023-11-19T03:35:58;5.57;;;1.63;;
67747;SDS011;54543;50.712;6.070;2023-11-19T03:38:24;5.47;;;2.10;;
67747;SDS011;54543;50.712;6.070;2023-11-19T03:40:49;3.97;;;1.73;;
67747;SDS011;54543;50.712;6.070;2023-11-19T03:43:15;3.38;;;1.65;;
67747;SDS011;54543;50.712;6.070;2023-11-19T03:45:40;5.00;;;2.05;;
67747;SDS011;54543;50.712;6.070;2023-11-19T03:48:06;3.30;;;1.58;;
67747;SDS011;54543;50.712;6.070;2023-11-19T03:50:32;5.63;;;2.63;;
67747;SDS011;54543;50.712;6.070;2023-11-19T03:52:57;5.03;;;1.88;;
67747;SDS011;54543;50.712;6.070;2023-11-19T03:55:23;5.45;;;1.90;;
67747;SDS011;54543;50.712;6.070;2023-11-19T03:57:48;4.75;;;1.77;;
67747;SDS011;54543;50.712;6.070;2023-11-19T04:00:14;7.07;;;2.00;;
67747;SDS011;54543;50.712;6.070;2023-11-19T04:02:41;5.35;;;1.90;;
67747;SDS011;54543;50.712;6.070;2023-11-19T04:05:07;6.15;;;2.20;;
67747;SDS011;54543;50.712;6.070;2023-11-19T04:07:32;5.20;;;1.70;;
67747;SDS011;54543;50.712;6.070;2023-11-19T04:09:58;5.88;;;2.00;;
67747;SDS011;54543;50.712;6.070;2023-11-19T04:12:24;5.00;;;2.15;;
67747;SDS011;54543;50.712;6.070;2023-11-19T04:14:50;6.45;;;2.22;;
67747;SDS011;54543;50.712;6.070;2023-11-19T04:17:15;11.18;;;2.35;;
67747;SDS011;54543;50.712;6.070;2023-11-19T04:19:41;8.85;;;2.28;;
67747;SDS011;54543;50.712;6.070;2023-11-19T04:22:09;6.85;;;1.77;;
67747;SDS011;54543;50.712;6.070;2023-11-19T04:24:34;9.15;;;2.80;;
67747;SDS011;54543;50.712;6.070;2023-11-19T04:27:00;7.75;;;1.73;;
67747;SDS011;54543;50.712;6.070;2023-11-19T04:29:26;6.65;;;1.95;;
67747;SDS011;54543;50.712;6.070;2023-11-19T04:31:51;6.22;;;2.10;;
67747;SDS011;54543;50.712;6.070;2023-11-19T04:34:17;9.35;;;2.20;;
67747;SDS011;54543;50.712;6.070;2023-11-19T04:36:43;8.05;;;2.13;;
67747;SDS011;54543;50.712;6.070;2023-11-19T04:39:09;9.18;;;2.40;;
67747;SDS011;54543;50.712;6.070;2023-11-19T04:41:45;8.43;;;2.22;;
67747;SDS011;54543;50.712;6.070;2023-11-19T04:44:11;8.63;;;1.70;;
67747;SDS011;54543;50.712;6.070;2023-11-19T04:46:36;7.10;;;2.38;;
67747;SDS011;54543;50.712;6.070;2023-11-19T04:49:02;10.27;;;2.08;;
67747;SDS011;54543;50.712;6.070;2023-11-19T04:51:27;8.50;;;1.80;;
67747;SDS011;54543;50.712;6.070;2023-11-19T04:53:53;4.72;;;1.80;;
67747;SDS011;54543;50.712;6.070;2023-11-19T04:56:18;7.25;;;2.15;;
67747;SDS011;54543;50.712;6.070;2023-11-19T04:58:45;8.43;;;1.85;;
67747;SDS011;54543;50.712;6.070;2023-11-19T05:01:13;10.73;;;2.22;;
67747;SDS011;54543;50.712;6.070;2023-11-19T05:03:41;7.15;;;1.77;;
67747;SDS011;54543;50.712;6.070;2023-11-19T05:06:07;9.57;;;2.10;;
67747;SDS011;54543;50.712;6.070;2023-11-19T05:08:33;9.57;;;2.33;;
67747;SDS011;54543;50.712;6.070;2023-11-19T05:10:58;11.93;;;2.20;;
67747;SDS011;54543;50.712;6.070;2023-11-19T05:13:24;6.93;;;1.73;;
67747;SDS011;54543;50.712;6.070;2023-11-19T05:15:50;7.78;;;2.75;;
67747;SDS011;54543;50.712;6.070;2023-11-19T05:18:15;9.30;;;2.63;;
67747;SDS011;54543;50.712;6.070;2023-11-19T05:20:41;6.80;;;1.73;;
67747;SDS011;54543;50.712;6.070;2023-11-19T05:23:06;9.73;;;2.08;;
67747;SDS011;54543;50.712;6.070;2023-11-19T05:25:32;11.80;;;2.63;;
67747;SDS011;54543;50.712;6.070;2023-11-19T05:27:57;11.38;;;2.83;;
67747;SDS011;54543;50.712;6.070;2023-11-19T05:30:23;14.35;;;2.35;;
67747;SDS011;54543;50.712;6.070;2023-11-19T05:32:48;9.50;;;2.03;;
67747;SDS011;54543;50.712;6.070;2023-11-19T05:35:14;10.93;;;2.22;;
67747;SDS011;54543;50.712;6.070;2023-11-19T05:37:39;6.97;;;2.17;;
67747;SDS011;54543;50.712;6.070;2023-11-19T05:40:05;4.95;;;1.70;;
67747;SDS011;54543;50.712;6.070;2023-11-19T05:42:39;8.10;;;2.33;;
67747;SDS011;54543;50.712;6.070;2023-11-19T05:45:09;8.68;;;2.10;;
67747;SDS011;54543;50.712;6.070;2023-11-19T05:47:36;11.02;;;2.30;;
67747;SDS011;54543;50.712;6.070;2023-11-19T05:50:02;7.55;;;2.38;;
67747;SDS011;54543;50.712;6.070;2023-11-19T05:52:28;8.13;;;2.20;;
67747;SDS011;54543;50.712;6.070;2023-11-19T05:54:59;8.13;;;2.08;;
67747;SDS011;54543;50.712;6.070;2023-11-19T05:57:29;10.75;;;2.67;;
67747;SDS011;54543;50.712;6.070;2023-11-19T05:59:54;12.27;;;2.33;;
67747;SDS011;54543;50.712;6.070;2023-11-19T06:02:20;14.57;;;3.17;;
67747;SDS011;54543;50.712;6.070;2023-11-19T06:04:45;7.00;;;2.10;;
67747;SDS011;54543;50.712;6.070;2023-11-19T06:07:13;10.00;;;2.33;;
67747;SDS011;54543;50.712;6.070;2023-11-19T06:09:40;9.13;;;2.50;;
67747;SDS011;54543;50.712;6.070;2023-11-19T06:12:06;13.75;;;2.50;;
67747;SDS011;54543;50.712;6.070;2023-11-19T06:14:32;5.93;;;2.15;;
67747;SDS011;54543;50.712;6.070;2023-11-19T06:16:58;9.95;;;2.33;;
67747;SDS011;54543;50.712;6.070;2023-11-19T06:19:23;9.30;;;2.45;;
67747;SDS011;54543;50.712;6.070;2023-11-19T06:21:50;9.30;;;2.50;;
67747;SDS011;54543;50.712;6.070;2023-11-19T06:24:16;8.77;;;2.50;;
67747;SDS011;54543;50.712;6.070;2023-11-19T06:26:41;12.10;;;3.08;;
67747;SDS011;54543;50.712;6.070;2023-11-19T06:29:07;11.05;;;2.40;;
67747;SDS011;54543;50.712;6.070;2023-11-19T06:31:32;9.38;;;2.65;;
67747;SDS011;54543;50.712;6.070;2023-11-19T06:33:58;8.55;;;2.17;;
67747;SDS011;54543;50.712;6.070;2023-11-19T06:36:24;9.63;;;2.40;;
67747;SDS011;54543;50.712;6.070;2023-11-19T06:38:49;8.80;;;2.20;;
67747;SDS011;54543;50.712;6.070;2023-11-19T06:41:15;13.60;;;2.22;;
67747;SDS011;54543;50.712;6.070;2023-11-19T06:43:40;10.15;;;2.42;;
67747;SDS011;54543;50.712;6.070;2023-11-19T06:46:13;9.65;;;2.63;;
67747;SDS011;54543;50.712;6.070;2023-11-19T06:48:40;8.48;;;2.40;;
67747;SDS011;54543;50.712;6.070;2023-11-19T06:51:05;6.97;;;2.38;;
67747;SDS011;54543;50.712;6.070;2023-11-19T06:53:31;12.50;;;2.78;;
67747;SDS011;54543;50.712;6.070;2023-11-19T06:55:56;19.50;;;3.28;;
67747;SDS011;54543;50.712;6.070;2023-11-19T06:58:22;14.50;;;2.92;;
67747;SDS011;54543;50.712;6.070;2023-11-19T07:00:47;8.75;;;2.80;;
67747;SDS011;54543;50.712;6.070;2023-11-19T07:03:14;14.63;;;3.50;;
67747;SDS011;54543;50.712;6.070;2023-11-19T07:05:41;18.63;;;4.72;;
67747;SDS011;54543;50.712;6.070;2023-11-19T07:08:06;35.55;;;11.82;;
67747;SDS011;54543;50.712;6.070;2023-11-19T07:10:35;11.77;;;5.50;;
67747;SDS011;54543;50.712;6.070;2023-11-19T07:13:00;11.68;;;3.70;;
67747;SDS011;54543;50.712;6.070;2023-11-19T07:15:26;12.50;;;4.03;;
67747;SDS011;54543;50.712;6.070;2023-11-19T07:17:53;15.32;;;4.10;;
67747;SDS011;54543;50.712;6.070;2023-11-19T07:20:19;13.20;;;3.42;;
67747;SDS011;54543;50.712;6.070;2023-11-19T07:22:45;14.98;;;4.00;;
67747;SDS011;54543;50.712;6.070;2023-11-19T07:25:14;12.23;;;3.38;;
67747;SDS011;54543;50.712;6.070;2023-11-19T07:27:39;18.35;;;4.53;;
67747;SDS011;54543;50.712;6.070;2023-11-19T07:30:06;7.93;;;3.33;;
67747;SDS011;54543;50.712;6.070;2023-11-19T07:32:32;9.73;;;2.60;;
67747;SDS011;54543;50.712;6.070;2023-11-19T07:34:58;13.45;;;3.65;;
67747;SDS011;54543;50.712;6.070;2023-11-19T07:37:24;7.40;;;2.50;;
67747;SDS011;54543;50.712;6.070;2023-11-19T07:39:50;22.88;;;8.60;;
67747;SDS011;54543;50.712;6.070;2023-11-19T07:42:17;12.13;;;3.15;;
67747;SDS011;54543;50.712;6.070;2023-11-19T07:44:45;15.25;;;3.08;;
67747;SDS011;54543;50.712;6.070;2023-11-19T07:47:11;19.00;;;5.05;;
67747;SDS011;54543;50.712;6.070;2023-11-19T07:49:38;21.83;;;9.40;;
67747;SDS011;54543;50.712;6.070;2023-11-19T07:52:04;11.75;;;3.90;;
67747;SDS011;54543;50.712;6.070;2023-11-19T07:54:30;12.90;;;6.45;;
67747;SDS011;54543;50.712;6.070;2023-11-19T07:56:55;15.05;;;6.82;;
67747;SDS011;54543;50.712;6.070;2023-11-19T07:59:21;10.95;;;4.53;;
67747;SDS011;54543;50.712;6.070;2023-11-19T08:01:46;13.88;;;3.80;;
67747;SDS011;54543;50.712;6.070;2023-11-19T08:04:13;12.18;;;3.28;;
67747;SDS011;54543;50.712;6.070;2023-11-19T08:06:38;12.07;;;4.03;;
67747;SDS011;54543;50.712;6.070;2023-11-19T08:09:04;13.00;;;4.35;;
67747;SDS011;54543;50.712;6.070;2023-11-19T08:11:31;10.25;;;4.05;;
67747;SDS011;54543;50.712;6.070;2023-11-19T08:13:57;17.08;;;4.88;;
67747;SDS011;54543;50.712;6.070;2023-11-19T08:16:22;11.85;;;3.70;;
67747;SDS011;54543;50.712;6.070;2023-11-19T08:18:48;13.60;;;4.03;;
67747;SDS011;54543;50.712;6.070;2023-11-19T08:21:13;14.32;;;3.60;;
67747;SDS011;54543;50.712;6.070;2023-11-19T08:23:40;8.93;;;2.90;;
67747;SDS011;54543;50.712;6.070;2023-11-19T08:26:05;9.82;;;3.20;;
67747;SDS011;54543;50.712;6.070;2023-11-19T08:28:31;16.25;;;5.15;;
67747;SDS011;54543;50.712;6.070;2023-11-19T08:30:59;11.05;;;3.15;;
67747;SDS011;54543;50.712;6.070;2023-11-19T08:33:26;15.25;;;4.93;;
67747;SDS011;54543;50.712;6.070;2023-11-19T08:35:52;18.10;;;4.47;;
67747;SDS011;54543;50.712;6.070;2023-11-19T08:38:18;10.35;;;3.45;;
67747;SDS011;54543;50.712;6.070;2023-11-19T08:40:43;10.98;;;2.40;;
67747;SDS011;54543;50.712;6.070;2023-11-19T08:43:09;14.18;;;6.78;;
67747;SDS011;54543;50.712;6.070;2023-11-19T08:45:34;9.85;;;3.80;;
67747;SDS011;54543;50.712;6.070;2023-11-19T08:48:00;10.65;;;3.22;;
67747;SDS011;54543;50.712;6.070;2023-11-19T08:50:25;8.38;;;2.67;;
67747;SDS011;54543;50.712;6.070;2023-11-19T08:52:51;15.18;;;3.95;;
67747;SDS011;54543;50.712;6.070;2023-11-19T08:55:16;22.83;;;6.22;;
67747;SDS011;54543;50.712;6.070;2023-11-19T08:57:42;32.72;;;8.93;;
67747;SDS011;54543;50.712;6.070;2023-11-19T09:00:07;21.20;;;6.57;;
67747;SDS011;54543;50.712;6.070;2023-11-19T09:02:34;13.48;;;5.28;;
67747;SDS011;54543;50.712;6.070;2023-11-19T09:05:02;18.40;;;5.13;;
67747;SDS011;54543;50.712;6.070;2023-11-19T09:07:27;19.30;;;5.55;;
67747;SDS011;54543;50.712;6.070;2023-11-19T09:09:53;16.33;;;4.07;;
67747;SDS011;54543;50.712;6.070;2023-11-19T09:12:18;14.80;;;3.30;;
67747;SDS011;54543;50.712;6.070;2023-11-19T09:14:44;13.48;;;3.10;;
67747;SDS011;54543;50.712;6.070;2023-11-19T09:17:10;12.32;;;3.20;;
67747;SDS011;54543;50.712;6.070;2023-11-19T09:19:37;8.10;;;2.65;;
67747;SDS011;54543;50.712;6.070;2023-11-19T09:22:03;12.90;;;2.67;;
67747;SDS011;54543;50.712;6.070;2023-11-19T09:24:29;13.75;;;3.17;;
67747;SDS011;54543;50.712;6.070;2023-11-19T09:26:54;8.98;;;2.80;;
67747;SDS011;54543;50.712;6.070;2023-11-19T09:29:21;13.02;;;5.40;;
67747;SDS011;54543;50.712;6.070;2023-11-19T09:31:48;11.18;;;3.97;;
67747;SDS011;54543;50.712;6.070;2023-11-19T09:34:14;14.63;;;5.97;;
67747;SDS011;54543;50.712;6.070;2023-11-19T09:36:42;12.30;;;4.85;;
67747;SDS011;54543;50.712;6.070;2023-11-19T09:39:10;18.95;;;7.07;;
67747;SDS011;54543;50.712;6.070;2023-11-19T09:41:42;15.30;;;7.07;;
67747;SDS011;54543;50.712;6.070;2023-11-19T09:44:13;14.77;;;4.93;;
67747;SDS011;54543;50.712;6.070;2023-11-19T09:46:43;14.65;;;7.35;;
67747;SDS011;54543;50.712;6.070;2023-11-19T09:49:09;17.08;;;4.82;;
67747;SDS011;54543;50.712;6.070;2023-11-19T09:54:11;13.60;;;7.55;;
67747;SDS011;54543;50.712;6.070;2023-11-19T09:56:40;13.10;;;5.47;;
67747;SDS011;54543;50.712;6.070;2023-11-19T09:59:11;14.73;;;5.40;;
67747;SDS011;54543;50.712;6.070;2023-11-19T10:01:38;16.10;;;3.72;;
67747;SDS011;54543;50.712;6.070;2023-11-19T10:06:35;16.42;;;5.50;;
67747;SDS011;54543;50.712;6.070;2023-11-19T10:09:03;15.18;;;5.82;;
67747;SDS011;54543;50.712;6.070;2023-11-19T10:11:31;8.13;;;4.00;;
67747;SDS011;54543;50.712;6.070;2023-11-19T10:13:59;16.65;;;6.55;;
67747;SDS011;54543;50.712;6.070;2023-11-19T10:18:54;17.15;;;6.25;;
67747;SDS011;54543;50.712;6.070;2023-11-19T10:21:21;14.05;;;5.00;;
67747;SDS011;54543;50.712;6.070;2023-11-19T10:23:47;10.77;;;3.30;;
67747;SDS011;54543;50.712;6.070;2023-11-19T10:26:15;13.80;;;3.85;;
67747;SDS011;54543;50.712;6.070;2023-11-19T10:28:40;21.88;;;9.95;;
67747;SDS011;54543;50.712;6.070;2023-11-19T10:31:11;24.05;;;12.07;;
67747;SDS011;54543;50.712;6.070;2023-11-19T10:33:40;18.80;;;11.82;;
67747;SDS011;54543;50.712;6.070;2023-11-19T10:36:06;13.27;;;6.80;;
67747;SDS011;54543;50.712;6.070;2023-11-19T10:38:32;26.85;;;12.95;;
67747;SDS011;54543;50.712;6.070;2023-11-19T10:40:58;28.77;;;9.32;;
67747;SDS011;54543;50.712;6.070;2023-11-19T10:43:24;16.52;;;7.38;;
67747;SDS011;54543;50.712;6.070;2023-11-19T10:45:50;34.85;;;17.48;;
67747;SDS011;54543;50.712;6.070;2023-11-19T10:48:17;21.50;;;10.15;;
67747;SDS011;54543;50.712;6.070;2023-11-19T10:50:43;15.77;;;6.28;;
67747;SDS011;54543;50.712;6.070;2023-11-19T10:53:12;18.27;;;5.05;;
67747;SDS011;54543;50.712;6.070;2023-11-19T10:55:45;17.60;;;5.18;;
67747;SDS011;54543;50.712;6.070;2023-11-19T11:00:51;11.80;;;3.42;;
67747;SDS011;54543;50.712;6.070;2023-11-19T11:03:24;10.98;;;3.65;;
67747;SDS011;54543;50.712;6.070;2023-11-19T11:05:52;15.85;;;3.50;;
67747;SDS011;54543;50.712;6.070;2023-11-19T11:08:20;11.68;;;3.67;;
67747;SDS011;54543;50.712;6.070;2023-11-19T11:13:18;12.57;;;6.30;;
67747;SDS011;54543;50.712;6.070;2023-11-19T11:15:44;13.40;;;5.10;;
67747;SDS011;54543;50.712;6.070;2023-11-19T11:18:13;20.35;;;9.65;;
67747;SDS011;54543;50.712;6.070;2023-11-19T11:20:45;19.52;;;9.63;;
67747;SDS011;54543;50.712;6.070;2023-11-19T11:28:48;14.20;;;4.07;;
67747;SDS011;54543;50.712;6.070;2023-11-19T11:37:12;11.13;;;3.40;;
67747;SDS011;54543;50.712;6.070;2023-11-19T11:39:50;20.30;;;9.57;;
67747;SDS011;54543;50.712;6.070;2023-11-19T11:50:20;11.82;;;4.85;;
67747;SDS011;54543;50.712;6.070;2023-11-19T11:58:31;10.95;;;4.65;;
67747;SDS011;54543;50.712;6.070;2023-11-19T12:00:59;9.77;;;3.45;;
67747;SDS011;54543;50.712;6.070;2023-11-19T12:03:27;11.85;;;3.38;;
67747;SDS011;54543;50.712;6.070;2023-11-19T12:05:54;10.35;;;5.30;;
67747;SDS011;54543;50.712;6.070;2023-11-19T12:08:27;10.65;;;5.03;;
67747;SDS011;54543;50.712;6.070;2023-11-19T12:10:57;10.77;;;3.20;;
67747;SDS011;54543;50.712;6.070;2023-11-19T12:13:24;10.57;;;3.42;;
67747;SDS011;54543;50.712;6.070;2023-11-19T12:16:07;11.30;;;2.90;;
67747;SDS011;54543;50.712;6.070;2023-11-19T12:18:33;8.82;;;3.10;;
67747;SDS011;54543;50.712;6.070;2023-11-19T12:21:07;7.57;;;2.65;;
67747;SDS011;54543;50.712;6.070;2023-11-19T12:23:44;12.45;;;4.43;;
67747;SDS011;54543;50.712;6.070;2023-11-19T12:26:32;12.52;;;3.17;;
67747;SDS011;54543;50.712;6.070;2023-11-19T12:29:04;9.52;;;3.97;;
67747;SDS011;54543;50.712;6.070;2023-11-19T12:31:33;15.63;;;3.42;;
67747;SDS011;54543;50.712;6.070;2023-11-19T12:34:00;11.73;;;3.05;;
67747;SDS011;54543;50.712;6.070;2023-11-19T12:36:26;13.43;;;4.07;;
67747;SDS011;54543;50.712;6.070;2023-11-19T12:44:08;11.90;;;4.00;;
67747;SDS011;54543;50.712;6.070;2023-11-19T12:46:34;13.30;;;4.18;;
67747;SDS011;54543;50.712;6.070;2023-11-19T12:49:00;14.52;;;3.55;;
67747;SDS011;54543;50.712;6.070;2023-11-19T12:51:30;13.25;;;3.13;;
67747;SDS011;54543;50.712;6.070;2023-11-19T12:53:57;9.20;;;2.58;;
67747;SDS011;54543;50.712;6.070;2023-11-19T12:56:24;11.30;;;3.85;;
67747;SDS011;54543;50.712;6.070;2023-11-19T12:58:49;9.90;;;3.65;;
67747;SDS011;54543;50.712;6.070;2023-11-19T13:01:18;10.35;;;4.00;;
67747;SDS011;54543;50.712;6.070;2023-11-19T13:03:45;10.10;;;3.50;;
67747;SDS011;54543;50.712;6.070;2023-11-19T13:06:12;15.65;;;6.20;;
67747;SDS011;54543;50.712;6.070;2023-11-19T13:08:44;15.43;;;7.53;;
67747;SDS011;54543;50.712;6.070;2023-11-19T13:11:11;16.58;;;7.03;;
67747;SDS011;54543;50.712;6.070;2023-11-19T13:16:23;10.75;;;4.47;;
67747;SDS011;54543;50.712;6.070;2023-11-19T13:18:49;17.52;;;4.57;;
67747;SDS011;54543;50.712;6.070;2023-11-19T13:21:15;10.05;;;5.35;;
67747;SDS011;54543;50.712;6.070;2023-11-19T13:23:40;12.50;;;6.28;;
67747;SDS011;54543;50.712;6.070;2023-11-19T13:26:06;7.80;;;3.65;;
67747;SDS011;54543;50.712;6.070;2023-11-19T13:28:32;14.05;;;5.03;;
67747;SDS011;54543;50.712;6.070;2023-11-19T13:30:58;23.65;;;9.00;;
67747;SDS011;54543;50.712;6.070;2023-11-19T13:33:23;12.52;;;3.55;;
67747;SDS011;54543;50.712;6.070;2023-11-19T13:35:49;8.73;;;2.70;;
67747;SDS011;54543;50.712;6.070;2023-11-19T13:38:14;12.57;;;2.72;;
67747;SDS011;54543;50.712;6.070;2023-11-19T13:40:40;10.38;;;3.25;;
67747;SDS011;54543;50.712;6.070;2023-11-19T13:43:06;12.30;;;3.67;;
67747;SDS011;54543;50.712;6.070;2023-11-19T13:45:32;8.57;;;2.80;;
67747;SDS011;54543;50.712;6.070;2023-11-19T13:47:58;8.40;;;2.22;;
67747;SDS011;54543;50.712;6.070;2023-11-19T13:50:23;8.93;;;3.05;;
67747;SDS011;54543;50.712;6.070;2023-11-19T13:52:49;9.20;;;3.22;;
67747;SDS011;54543;50.712;6.070;2023-11-19T13:55:14;8.82;;;3.83;;
67747;SDS011;54543;50.712;6.070;2023-11-19T13:57:40;14.38;;;5.07;;
67747;SDS011;54543;50.712;6.070;2023-11-19T14:00:07;12.48;;;3.72;;
67747;SDS011;54543;50.712;6.070;2023-11-19T14:02:44;14.13;;;3.40;;
67747;SDS011;54543;50.712;6.070;2023-11-19T14:05:11;7.75;;;3.08;;
67747;SDS011;54543;50.712;6.070;2023-11-19T14:07:37;10.88;;;4.07;;
67747;SDS011;54543;50.712;6.070;2023-11-19T14:10:04;9.50;;;3.90;;
67747;SDS011;54543;50.712;6.070;2023-11-19T14:12:34;10.25;;;3.38;;
67747;SDS011;54543;50.712;6.070;2023-11-19T14:15:01;10.60;;;5.30;;
67747;SDS011;54543;50.712;6.070;2023-11-19T14:17:27;11.98;;;4.93;;
67747;SDS011;54543;50.712;6.070;2023-11-19T14:19:53;12.82;;;3.67;;
67747;SDS011;54543;50.712;6.070;2023-11-19T14:22:18;12.15;;;2.90;;
67747;SDS011;54543;50.712;6.070;2023-11-19T14:24:44;9.93;;;4.28;;
67747;SDS011;54543;50.712;6.070;2023-11-19T14:27:10;8.32;;;4.00;;
67747;SDS011;54543;50.712;6.070;2023-11-19T14:29:36;9.23;;;2.90;;
67747;SDS011;54543;50.712;6.070;2023-11-19T14:32:02;8.68;;;2.85;;
67747;SDS011;54543;50.712;6.070;2023-11-19T14:34:28;11.43;;;3.78;;
67747;SDS011;54543;50.712;6.070;2023-11-19T14:36:57;10.55;;;3.72;;
67747;SDS011;54543;50.712;6.070;2023-11-19T14:39:23;10.80;;;3.35;;
67747;SDS011;54543;50.712;6.070;2023-11-19T14:41:49;9.88;;;2.88;;
67747;SDS011;54543;50.712;6.070;2023-11-19T14:44:15;9.20;;;3.17;;
67747;SDS011;54543;50.712;6.070;2023-11-19T14:46:41;9.20;;;3.63;;
67747;SDS011;54543;50.712;6.070;2023-11-19T14:49:07;9.52;;;4.72;;
67747;SDS011;54543;50.712;6.070;2023-11-19T14:51:36;7.90;;;3.20;;
67747;SDS011;54543;50.712;6.070;2023-11-19T14:54:05;7.10;;;3.50;;
67747;SDS011;54543;50.712;6.070;2023-11-19T14:56:31;12.90;;;3.20;;
67747;SDS011;54543;50.712;6.070;2023-11-19T14:58:56;12.30;;;3.65;;
67747;SDS011;54543;50.712;6.070;2023-11-19T15:01:22;9.90;;;3.80;;
67747;SDS011;54543;50.712;6.070;2023-11-19T15:03:48;10.00;;;3.63;;
67747;SDS011;54543;50.712;6.070;2023-11-19T15:06:13;13.65;;;2.97;;
67747;SDS011;54543;50.712;6.070;2023-11-19T15:08:40;6.55;;;2.65;;
67747;SDS011;54543;50.712;6.070;2023-11-19T15:11:07;9.80;;;2.63;;
67747;SDS011;54543;50.712;6.070;2023-11-19T15:13:34;9.70;;;2.72;;
67747;SDS011;54543;50.712;6.070;2023-11-19T15:16:02;14.10;;;3.17;;
67747;SDS011;54543;50.712;6.070;2023-11-19T15:18:31;10.10;;;2.53;;
67747;SDS011;54543;50.712;6.070;2023-11-19T15:20:56;6.00;;;2.85;;
67747;SDS011;54543;50.712;6.070;2023-11-19T15:23:22;11.52;;;4.00;;